Time;durP1;ratioP1;P1;durP2;ratioP2;P2;SDS_P1;SDS_P2;PMS_P1;PMS_P2;Temp;Humidity;BMP_temperature;BMP_pressure;BME280_temperature;BME280_humidity;BME280_pressure;Samples;Min_cycle;Max_cycle;Signal;HPM_P1;HPM_P2
2021/07/15 00:00:17;;;;;;;4.20;3.80;;;15.10;99.90;;;;;;5034576;28;20544;-57
2021/07/15 00:02:44;;;;;;;4.50;4.10;;;15.10;99.90;;;;;;5034329;28;20444;-56
2021/07/15 00:05:14;;;;;;;5.60;4.53;;;15.00;99.90;;;;;;5027529;28;20994;-56
2021/07/15 00:07:43;;;;;;;4.83;4.20;;;15.00;99.90;;;;;;5028920;28;20477;-57
2021/07/15 00:10:18;;;;;;;4.30;3.90;;;15.10;99.90;;;;;;5034432;28;20453;-57
2021/07/15 00:12:46;;;;;;;14.60;3.70;;;15.10;99.90;;;;;;5033887;28;20448;-57
2021/07/15 00:15:14;;;;;;;3.90;3.40;;;15.10;99.90;;;;;;5034522;28;20445;-57
2021/07/15 00:17:41;;;;;;;6.23;3.63;;;15.10;99.90;;;;;;5031133;28;21059;-57
2021/07/15 00:20:12;;;;;;;5.13;3.80;;;15.00;99.90;;;;;;5028924;28;20453;-57
2021/07/15 00:22:39;;;;;;;4.87;4.40;;;15.00;99.90;;;;;;5037894;28;20453;-57
2021/07/15 00:25:11;;;;;;;4.87;4.33;;;14.90;99.90;;;;;;5038666;28;20480;-57
2021/07/15 00:27:38;;;;;;;6.50;4.67;;;15.00;99.90;;;;;;5037420;28;20523;-58
2021/07/15 00:30:06;;;;;;;7.93;5.70;;;15.00;99.90;;;;;;5030521;28;20468;-57
2021/07/15 00:32:34;;;;;;;7.60;6.10;;;14.90;99.90;;;;;;5038808;28;20444;-57
2021/07/15 00:35:01;;;;;;;8.73;6.57;;;14.90;99.90;;;;;;5038575;28;20499;-61
2021/07/15 00:37:29;;;;;;;8.00;6.30;;;14.90;99.90;;;;;;5023483;28;20513;-58
2021/07/15 00:39:56;;;;;;;7.27;6.50;;;15.00;99.90;;;;;;5034041;28;20480;-58
2021/07/15 00:42:25;;;;;;;7.03;6.30;;;15.00;99.90;;;;;;5033266;28;20528;-57
2021/07/15 00:44:52;;;;;;;7.93;6.40;;;15.10;99.90;;;;;;5030252;28;20484;-57
2021/07/15 00:47:19;;;;;;;7.87;6.77;;;15.00;99.90;;;;;;5026266;28;20512;-56
2021/07/15 00:49:46;;;;;;;8.00;6.90;;;15.00;99.90;;;;;;5022430;28;20456;-57
2021/07/15 00:52:13;;;;;;;9.10;7.47;;;15.00;99.90;;;;;;5032185;28;20519;-57
2021/07/15 00:54:42;;;;;;;8.70;7.30;;;15.10;99.90;;;;;;5014143;28;20496;-57
2021/07/15 00:57:09;;;;;;;9.23;8.13;;;15.00;99.90;;;;;;5014295;28;20998;-57
2021/07/15 00:59:38;;;;;;;8.27;7.17;;;15.00;99.90;;;;;;5014541;28;20527;-57
2021/07/15 01:02:05;;;;;;;7.73;6.80;;;15.00;99.90;;;;;;5015622;28;20507;-57
2021/07/15 01:04:33;;;;;;;8.43;7.40;;;15.00;99.90;;;;;;5027666;28;20480;-57
2021/07/15 01:07:00;;;;;;;9.00;7.63;;;15.00;99.90;;;;;;5032972;28;21056;-57
2021/07/15 01:09:28;;;;;;;8.97;7.87;;;14.90;99.90;;;;;;5033340;28;20448;-57
2021/07/15 01:12:11;;;;;;;7.47;6.30;;;14.90;99.90;;;;;;5024073;28;20520;-57
2021/07/15 01:14:49;;;;;;;6.83;6.13;;;14.80;99.90;;;;;;5023219;28;20449;-57
2021/07/15 01:17:21;;;;;;;7.00;6.10;;;14.90;99.90;;;;;;5018443;28;20502;-57
2021/07/15 01:20:18;;;;;;;6.83;5.80;;;14.90;99.90;;;;;;5033279;28;20449;-57
2021/07/15 01:22:53;;;;;;;7.10;5.70;;;14.90;99.90;;;;;;5032938;28;20444;-57
2021/07/15 01:26:06;;;;;;;6.70;5.70;;;14.80;99.90;;;;;;5031639;28;21001;-57
2021/07/15 01:28:57;;;;;;;5.37;4.83;;;14.80;99.90;;;;;;5031532;28;20476;-57
2021/07/15 01:31:26;;;;;;;5.53;4.73;;;14.80;99.90;;;;;;5010785;28;20507;-57
2021/07/15 01:33:54;;;;;;;5.27;4.33;;;14.80;99.90;;;;;;5032416;28;20445;-57
2021/07/15 01:36:23;;;;;;;4.00;3.33;;;14.80;99.90;;;;;;5026208;28;20499;-57
2021/07/15 01:38:57;;;;;;;4.70;4.20;;;14.90;99.90;;;;;;5012939;28;20477;-57
2021/07/15 01:41:27;;;;;;;4.80;4.17;;;14.80;99.90;;;;;;5013303;28;20446;-57
2021/07/15 01:44:02;;;;;;;4.90;4.10;;;15.00;99.90;;;;;;5017731;28;20444;-57
2021/07/15 01:46:31;;;;;;;6.10;4.00;;;14.90;99.90;;;;;;5012866;28;20485;-57
2021/07/15 01:48:58;;;;;;;4.97;4.40;;;14.90;99.90;;;;;;5014495;28;20536;-57
2021/07/15 01:51:25;;;;;;;5.20;4.60;;;14.90;99.90;;;;;;5032244;28;20456;-57
2021/07/15 01:53:53;;;;;;;4.97;4.20;;;14.80;99.90;;;;;;5031929;28;20938;-56
2021/07/15 01:56:22;;;;;;;5.57;4.73;;;15.00;99.90;;;;;;5032472;28;20441;-57
2021/07/15 01:58:52;;;;;;;4.50;4.03;;;14.90;99.90;;;;;;5032241;28;20523;-57
2021/07/15 02:01:20;;;;;;;4.83;3.63;;;14.80;99.90;;;;;;5031723;28;20507;-57
2021/07/15 02:03:51;;;;;;;4.93;4.43;;;14.70;99.90;;;;;;5032002;28;20448;-57
2021/07/15 02:06:20;;;;;;;5.37;4.13;;;14.90;99.90;;;;;;5031809;28;20939;-57
2021/07/15 02:08:48;;;;;;;4.57;4.17;;;14.80;99.90;;;;;;5032167;28;20860;-57
2021/07/15 02:11:16;;;;;;;5.27;4.60;;;14.70;99.90;;;;;;5031887;28;20453;-57
2021/07/15 02:13:45;;;;;;;4.67;4.03;;;14.60;99.90;;;;;;5031918;28;20449;-57
2021/07/15 02:16:13;;;;;;;5.13;4.00;;;14.70;99.90;;;;;;5032094;28;20899;-57
2021/07/15 02:18:42;;;;;;;4.00;3.30;;;14.70;99.90;;;;;;5021633;28;20539;-57
2021/07/15 02:21:11;;;;;;;4.17;3.20;;;14.60;99.90;;;;;;5012550;28;20458;-57
2021/07/15 02:23:38;;;;;;;3.80;3.40;;;14.60;99.90;;;;;;5029173;28;21035;-57
2021/07/15 02:26:06;;;;;;;3.20;2.67;;;14.60;99.90;;;;;;5031543;28;20997;-57
2021/07/15 02:28:34;;;;;;;3.40;3.10;;;14.60;99.90;;;;;;5031181;28;20905;-57
2021/07/15 02:31:06;;;;;;;3.40;3.10;;;14.60;99.90;;;;;;5031914;28;20503;-57
2021/07/15 02:33:34;;;;;;;3.20;2.87;;;14.60;99.90;;;;;;5031697;28;20797;-56
2021/07/15 02:36:04;;;;;;;3.60;3.30;;;14.60;99.90;;;;;;5016626;28;20449;-57
2021/07/15 02:38:34;;;;;;;3.33;2.70;;;14.50;99.90;;;;;;5013335;28;20982;-57
2021/07/15 02:41:01;;;;;;;3.83;3.03;;;14.50;99.90;;;;;;5011627;28;20512;-57
2021/07/15 02:43:28;;;;;;;3.30;3.00;;;14.50;99.90;;;;;;5020684;28;20452;-57
2021/07/15 02:45:55;;;;;;;3.97;3.50;;;14.50;99.90;;;;;;5031736;28;20538;-57
2021/07/15 02:48:22;;;;;;;4.30;3.90;;;14.60;99.90;;;;;;5031556;28;20894;-57
2021/07/15 02:50:49;;;;;;;5.70;4.43;;;14.70;99.90;;;;;;5031139;28;20452;-57
2021/07/15 02:53:16;;;;;;;4.00;3.60;;;14.60;99.90;;;;;;5030901;28;20931;-57
2021/07/15 02:55:50;;;;;;;4.90;4.43;;;14.60;99.90;;;;;;5021002;28;20449;-56
2021/07/15 02:58:21;;;;;;;4.40;4.00;;;14.60;99.90;;;;;;5031935;28;20977;-56
2021/07/15 03:00:53;;;;;;;6.10;5.30;;;14.50;99.90;;;;;;5031702;28;20455;-56
2021/07/15 03:03:27;;;;;;;6.70;5.37;;;14.50;99.90;;;;;;5031533;28;20449;-57
2021/07/15 03:06:01;;;;;;;7.17;5.70;;;14.60;99.90;;;;;;5031659;28;20480;-57
2021/07/15 03:08:32;;;;;;;6.83;6.00;;;14.60;99.90;;;;;;5026793;28;20483;-57
2021/07/15 03:11:05;;;;;;;6.40;5.73;;;14.60;99.90;;;;;;5031715;28;20445;-57
2021/07/15 03:13:34;;;;;;;6.97;6.27;;;14.60;99.90;;;;;;5030173;28;20506;-56
2021/07/15 03:16:02;;;;;;;7.67;6.40;;;14.50;99.90;;;;;;5031216;28;20946;-57
2021/07/15 03:18:31;;;;;;;8.00;5.87;;;14.60;99.90;;;;;;5031118;28;20550;-56
2021/07/15 03:20:59;;;;;;;6.60;5.90;;;14.60;99.90;;;;;;5031277;28;20950;-56
2021/07/15 03:23:27;;;;;;;5.90;5.17;;;14.60;99.90;;;;;;5031355;28;20506;-56
2021/07/15 03:25:57;;;;;;;4.70;4.20;;;14.60;99.90;;;;;;5028231;28;20480;-57
2021/07/15 03:28:36;;;;;;;4.17;3.47;;;14.60;99.90;;;;;;5030100;28;20534;-57
2021/07/15 03:31:05;;;;;;;4.00;3.43;;;14.50;99.90;;;;;;5031183;28;20452;-57
2021/07/15 03:33:34;;;;;;;4.20;3.80;;;14.50;99.90;;;;;;5030771;28;20510;-57
2021/07/15 03:36:04;;;;;;;4.13;3.23;;;14.50;99.90;;;;;;5031178;28;20448;-57
2021/07/15 03:38:31;;;;;;;3.17;2.87;;;14.50;99.90;;;;;;5031386;28;20524;-57
2021/07/15 03:41:01;;;;;;;3.30;3.00;;;14.50;99.90;;;;;;5029551;28;20457;-57
2021/07/15 03:43:30;;;;;;;3.30;3.00;;;14.50;99.90;;;;;;5030632;28;20475;-56
2021/07/15 03:45:58;;;;;;;2.90;2.70;;;14.40;99.90;;;;;;5030551;28;20554;-57
2021/07/15 03:48:27;;;;;;;5.07;3.60;;;14.40;99.90;;;;;;5030574;28;20468;-56
2021/07/15 03:50:58;;;;;;;3.77;3.47;;;14.40;99.90;;;;;;5031217;28;20445;-56
2021/07/15 03:53:25;;;;;;;4.83;3.43;;;14.40;99.90;;;;;;5031088;28;20499;-56
2021/07/15 03:55:54;;;;;;;5.50;4.00;;;14.40;99.90;;;;;;5020166;28;20946;-56
2021/07/15 03:58:22;;;;;;;4.60;3.60;;;14.60;99.90;;;;;;5022074;28;20473;-57
2021/07/15 04:00:58;;;;;;;4.80;3.70;;;14.70;99.90;;;;;;5016548;28;20445;-57
2021/07/15 04:03:25;;;;;;;6.83;4.37;;;14.50;99.90;;;;;;5034563;28;20506;-57
2021/07/15 04:05:54;;;;;;;4.10;3.70;;;14.50;99.90;;;;;;5034404;28;20621;-56
2021/07/15 04:08:24;;;;;;;4.67;4.10;;;14.50;99.90;;;;;;5033258;28;20542;-57
2021/07/15 04:10:53;;;;;;;4.30;3.90;;;14.50;99.90;;;;;;5034269;28;20445;-57
2021/07/15 04:13:22;;;;;;;6.43;3.70;;;14.50;99.90;;;;;;5032610;28;20506;-57
2021/07/15 04:16:16;;;;;;;3.90;3.43;;;14.50;99.90;;;;;;5033420;28;20453;-57
2021/07/15 04:18:44;;;;;;;4.10;3.70;;;14.60;99.90;;;;;;5014524;28;20473;-56
2021/07/15 04:21:13;;;;;;;5.60;3.37;;;14.60;99.90;;;;;;5022018;28;20812;-57
2021/07/15 04:23:41;;;;;;;4.50;3.60;;;14.70;99.90;;;;;;5028113;28;21025;-56
2021/07/15 04:26:09;;;;;;;3.67;3.37;;;14.60;99.90;;;;;;5014379;28;20489;-56
2021/07/15 04:28:37;;;;;;;4.50;3.60;;;14.60;99.90;;;;;;5025189;28;20473;-56
2021/07/15 04:31:20;;;;;;;5.50;3.73;;;14.60;99.90;;;;;;5032933;28;20461;-57
2021/07/15 04:33:48;;;;;;;5.67;4.27;;;14.50;99.90;;;;;;5027768;28;20495;-57
2021/07/15 04:36:15;;;;;;;4.43;3.70;;;14.40;99.90;;;;;;5034010;28;20445;-56
2021/07/15 04:38:43;;;;;;;8.73;3.80;;;14.40;99.90;;;;;;5033840;28;20518;-56
2021/07/15 04:41:12;;;;;;;4.80;3.70;;;14.40;99.90;;;;;;5033763;28;20456;-56
2021/07/15 04:43:40;;;;;;;10.63;4.00;;;14.30;99.90;;;;;;5032745;28;20969;-56
2021/07/15 04:46:10;;;;;;;5.10;3.67;;;14.30;99.90;;;;;;5016869;28;20489;-56
2021/07/15 04:48:37;;;;;;;4.80;3.90;;;14.20;99.90;;;;;;5018618;28;20530;-56
2021/07/15 04:51:06;;;;;;;5.90;4.00;;;14.20;99.90;;;;;;5033731;28;20457;-57
2021/07/15 04:53:33;;;;;;;4.30;3.50;;;14.20;99.90;;;;;;5033368;28;20881;-55
2021/07/15 04:56:01;;;;;;;4.00;3.57;;;14.30;99.90;;;;;;5033088;28;20441;-55
2021/07/15 04:58:29;;;;;;;4.27;3.57;;;14.20;99.90;;;;;;5033512;28;20469;-55
2021/07/15 05:00:56;;;;;;;5.40;3.70;;;14.20;99.90;;;;;;5032299;28;20503;-55
2021/07/15 05:03:33;;;;;;;4.40;3.23;;;14.20;99.90;;;;;;5032687;28;20452;-55
2021/07/15 05:06:00;;;;;;;5.40;4.10;;;14.20;99.90;;;;;;5032813;28;20476;-55
2021/07/15 05:08:28;;;;;;;4.17;3.77;;;14.30;99.90;;;;;;5030724;28;20479;-55
2021/07/15 05:10:56;;;;;;;5.03;3.63;;;14.30;99.90;;;;;;5029400;28;20499;-55
2021/07/15 05:13:23;;;;;;;3.47;3.17;;;14.30;99.90;;;;;;5032799;28;20522;-55
2021/07/15 05:15:51;;;;;;;4.40;2.90;;;14.40;99.90;;;;;;5031774;28;21012;-57
2021/07/15 05:18:18;;;;;;;2.87;2.63;;;14.40;99.90;;;;;;5027224;28;20530;-57
2021/07/15 05:20:47;;;;;;;3.27;2.97;;;14.30;99.90;;;;;;5025794;28;20503;-56
2021/07/15 05:23:14;;;;;;;3.77;3.20;;;14.40;99.90;;;;;;5032127;28;20440;-56
2021/07/15 05:25:42;;;;;;;2.80;2.60;;;14.30;99.90;;;;;;5028449;28;20452;-56
2021/07/15 05:28:09;;;;;;;4.47;3.20;;;14.40;99.90;;;;;;5031974;28;20550;-56
2021/07/15 05:30:36;;;;;;;3.60;3.10;;;14.30;99.90;;;;;;5032550;28;20527;-56
2021/07/15 05:33:03;;;;;;;4.67;2.40;;;14.30;99.90;;;;;;5032361;28;20942;-56
2021/07/15 05:35:31;;;;;;;3.13;2.80;;;14.50;99.90;;;;;;5022643;28;20457;-56
2021/07/15 05:38:00;;;;;;;3.40;3.10;;;14.50;99.90;;;;;;5030282;28;20473;-56
2021/07/15 05:40:27;;;;;;;6.40;3.60;;;14.50;99.90;;;;;;5017447;28;20476;-56
2021/07/15 05:42:54;;;;;;;4.67;2.80;;;14.50;99.90;;;;;;5032480;28;20452;-56
2021/07/15 05:45:21;;;;;;;5.93;3.73;;;14.40;99.90;;;;;;5032922;28;20825;-57
2021/07/15 05:47:48;;;;;;;2.60;2.33;;;14.50;99.90;;;;;;5032626;28;20489;-56
2021/07/15 05:50:15;;;;;;;2.93;2.63;;;14.50;99.90;;;;;;5032688;28;20938;-56
2021/07/15 05:52:42;;;;;;;4.33;2.73;;;14.50;99.90;;;;;;5022301;28;20457;-57
2021/07/15 05:55:12;;;;;;;2.20;2.00;;;14.40;99.90;;;;;;5013791;28;20458;-56
2021/07/15 05:57:39;;;;;;;3.30;2.10;;;14.50;99.90;;;;;;5012909;28;20461;-56
2021/07/15 06:00:08;;;;;;;10.70;5.67;;;14.50;99.90;;;;;;5012775;28;20453;-57
2021/07/15 06:02:35;;;;;;;6.73;3.33;;;14.50;99.90;;;;;;5012553;28;20457;-57
2021/07/15 06:05:02;;;;;;;3.00;2.13;;;14.50;99.90;;;;;;5012733;28;20473;-56
2021/07/15 06:07:29;;;;;;;3.13;2.07;;;14.70;99.90;;;;;;5012471;28;20485;-56
2021/07/15 06:09:56;;;;;;;3.27;2.97;;;14.60;99.90;;;;;;5012752;28;20449;-56
2021/07/15 06:12:25;;;;;;;3.57;2.13;;;14.70;99.90;;;;;;5030792;28;20522;-57
2021/07/15 06:14:52;;;;;;;2.20;2.00;;;14.60;99.90;;;;;;5031406;28;20448;-56
2021/07/15 06:17:19;;;;;;;2.50;2.30;;;14.60;99.90;;;;;;5032177;28;20515;-57
2021/07/15 06:19:46;;;;;;;2.23;2.07;;;14.70;99.90;;;;;;5032159;28;20499;-56
2021/07/15 06:22:13;;;;;;;2.80;2.20;;;14.70;99.90;;;;;;5031832;28;20448;-57
2021/07/15 06:24:40;;;;;;;3.50;2.33;;;14.80;99.90;;;;;;5032043;28;20535;-56
2021/07/15 06:27:07;;;;;;;3.10;2.90;;;14.80;99.90;;;;;;5031963;28;20550;-57
2021/07/15 06:29:36;;;;;;;1.90;1.80;;;14.90;99.90;;;;;;5017939;28;20515;-57
2021/07/15 06:32:03;;;;;;;1.83;1.73;;;14.80;99.90;;;;;;5012100;28;20507;-57
2021/07/15 06:34:30;;;;;;;2.20;1.60;;;15.00;99.90;;;;;;5028668;28;20457;-57
2021/07/15 06:36:57;;;;;;;1.50;1.40;;;15.00;99.90;;;;;;5031402;28;20474;-56
2021/07/15 06:39:24;;;;;;;1.90;1.33;;;14.90;99.90;;;;;;5031369;28;20978;-56
2021/07/15 06:41:51;;;;;;;3.37;1.50;;;14.90;99.90;;;;;;5031326;28;20449;-56
2021/07/15 06:44:18;;;;;;;3.20;1.37;;;14.90;99.90;;;;;;5031975;28;20502;-56
2021/07/15 06:46:46;;;;;;;5.00;1.50;;;15.00;99.90;;;;;;5030783;28;20480;-57
2021/07/15 06:49:14;;;;;;;1.70;1.60;;;14.90;99.90;;;;;;5031712;28;20449;-56
2021/07/15 06:51:40;;;;;;;1.60;1.30;;;15.00;99.90;;;;;;5031749;28;20448;-56
2021/07/15 06:54:07;;;;;;;2.17;1.40;;;15.10;99.90;;;;;;5029753;28;20448;-56
2021/07/15 06:56:34;;;;;;;1.50;1.40;;;15.00;99.90;;;;;;5031713;28;20495;-56
2021/07/15 06:59:01;;;;;;;1.10;1.00;;;15.20;99.90;;;;;;5031708;28;20476;-57
2021/07/15 07:01:29;;;;;;;1.60;1.50;;;15.20;99.90;;;;;;5031500;28;21008;-56
2021/07/15 07:03:57;;;;;;;1.30;1.20;;;15.30;99.90;;;;;;5030645;28;20449;-57
2021/07/15 07:06:24;;;;;;;1.80;1.43;;;15.40;99.90;;;;;;5031488;28;20476;-57
2021/07/15 07:08:51;;;;;;;4.63;2.63;;;15.50;99.90;;;;;;5031617;28;20526;-56
2021/07/15 07:11:18;;;;;;;1.80;1.60;;;15.40;99.90;;;;;;5031531;28;20479;-56
2021/07/15 07:13:45;;;;;;;3.13;1.90;;;15.40;99.90;;;;;;5015088;28;20449;-57
2021/07/15 07:16:12;;;;;;;2.40;2.20;;;15.50;99.90;;;;;;5011749;28;20931;-56
2021/07/15 07:18:39;;;;;;;3.33;1.77;;;15.40;99.90;;;;;;5011655;28;20470;-56
2021/07/15 07:21:07;;;;;;;2.27;2.10;;;15.40;99.90;;;;;;5013023;28;20453;-56
2021/07/15 07:23:38;;;;;;;2.10;1.80;;;15.40;99.90;;;;;;5015551;28;20471;-57
2021/07/15 07:26:07;;;;;;;6.83;4.50;;;15.50;99.90;;;;;;5023945;28;20962;-56
2021/07/15 07:28:34;;;;;;;5.03;3.90;;;15.50;99.90;;;;;;5029241;28;20477;-56
2021/07/15 07:31:01;;;;;;;6.07;3.40;;;15.30;99.90;;;;;;5024522;28;20453;-56
2021/07/15 07:33:28;;;;;;;3.90;3.07;;;15.30;99.90;;;;;;5034795;28;20452;-56
2021/07/15 07:35:55;;;;;;;4.83;2.93;;;15.30;99.90;;;;;;5035216;28;20453;-56
2021/07/15 07:38:23;;;;;;;5.37;2.80;;;15.30;99.90;;;;;;5035087;28;20531;-56
2021/07/15 07:40:50;;;;;;;2.57;2.37;;;15.40;99.90;;;;;;5035182;28;20444;-56
2021/07/15 07:43:17;;;;;;;2.97;2.27;;;15.50;99.90;;;;;;5034773;28;20444;-57
2021/07/15 07:45:44;;;;;;;2.40;2.20;;;15.40;99.90;;;;;;5034884;28;20510;-57
2021/07/15 07:48:11;;;;;;;2.23;2.00;;;15.50;99.90;;;;;;5034810;28;20538;-56
2021/07/15 07:50:38;;;;;;;2.30;2.10;;;15.50;99.90;;;;;;5034321;28;20457;-57
2021/07/15 07:53:05;;;;;;;2.27;2.10;;;15.50;99.90;;;;;;5031745;28;20445;-57
2021/07/15 07:55:34;;;;;;;1.90;1.80;;;15.50;99.90;;;;;;5034527;28;20510;-57
2021/07/15 07:58:00;;;;;;;2.03;1.93;;;15.40;99.90;;;;;;5034360;28;20473;-57
2021/07/15 08:00:29;;;;;;;2.10;2.00;;;15.50;99.90;;;;;;5034166;28;20510;-56
2021/07/15 08:02:56;;;;;;;2.30;2.10;;;15.50;99.90;;;;;;5034643;28;20871;-56
2021/07/15 08:05:24;;;;;;;2.40;1.97;;;15.40;99.90;;;;;;5034193;28;20456;-57
2021/07/15 08:07:52;;;;;;;2.70;2.30;;;15.50;99.90;;;;;;5034250;28;20531;-57
2021/07/15 08:10:21;;;;;;;2.70;1.30;;;15.50;99.90;;;;;;5034282;28;20906;-56
2021/07/15 08:12:51;;;;;;;1.57;1.40;;;15.40;99.90;;;;;;5033725;28;20503;-57
2021/07/15 08:15:18;;;;;;;3.00;1.23;;;15.50;99.90;;;;;;5034123;28;20483;-56
2021/07/15 08:17:46;;;;;;;3.40;1.60;;;15.60;99.90;;;;;;5034523;28;20465;-57
2021/07/15 08:20:13;;;;;;;1.40;1.30;;;15.50;99.90;;;;;;5033705;28;20485;-57
2021/07/15 08:22:40;;;;;;;2.10;1.60;;;15.30;99.90;;;;;;5019291;28;21265;-56
2021/07/15 08:25:09;;;;;;;2.33;1.40;;;15.50;99.90;;;;;;5022620;28;20202;-57
2021/07/15 08:27:36;;;;;;;1.83;1.47;;;15.60;99.90;;;;;;5026029;28;20538;-57
2021/07/15 08:30:07;;;;;;;1.60;1.50;;;15.60;99.90;;;;;;5022205;28;20461;-57
2021/07/15 08:32:34;;;;;;;1.17;1.07;;;15.60;99.90;;;;;;5021364;28;22318;-56
2021/07/15 08:35:01;;;;;;;2.07;1.30;;;15.60;99.90;;;;;;5023413;28;21036;-57
2021/07/15 08:37:28;;;;;;;1.40;1.30;;;15.40;99.90;;;;;;5032334;28;20460;-57
2021/07/15 08:39:55;;;;;;;1.77;1.67;;;15.40;99.90;;;;;;5024951;28;20452;-57
2021/07/15 08:42:23;;;;;;;3.27;1.43;;;15.50;99.90;;;;;;5033872;28;20448;-57
2021/07/15 08:44:50;;;;;;;1.90;1.70;;;15.60;99.90;;;;;;5033825;28;20456;-57
2021/07/15 08:47:19;;;;;;;2.37;1.80;;;15.60;99.90;;;;;;5033528;28;20541;-58
2021/07/15 08:49:46;;;;;;;2.00;1.90;;;15.60;99.90;;;;;;5033735;28;20506;-57
2021/07/15 08:52:15;;;;;;;2.10;1.90;;;15.70;99.90;;;;;;5033257;28;20518;-56
2021/07/15 08:57:25;;;;;;;2.30;2.00;;;15.70;99.90;;;;;;5031292;28;20547;-57
2021/07/15 08:59:51;;;;;;;2.17;1.97;;;15.70;99.90;;;;;;5033474;28;20502;-56
2021/07/15 09:02:22;;;;;;;1.70;1.60;;;15.70;99.90;;;;;;5032816;28;20498;-57
2021/07/15 09:04:50;;;;;;;2.57;1.93;;;15.60;99.90;;;;;;5033502;28;20441;-56
2021/07/15 09:07:18;;;;;;;3.23;2.10;;;15.70;99.90;;;;;;5033386;28;20542;-57
2021/07/15 09:09:45;;;;;;;1.87;1.77;;;15.60;99.90;;;;;;5033413;28;20506;-57
2021/07/15 09:12:13;;;;;;;5.47;1.90;;;15.60;99.90;;;;;;5033049;28;20544;-57
2021/07/15 09:14:45;;;;;;;2.00;1.80;;;15.50;99.90;;;;;;5032639;28;20501;-56
2021/07/15 09:17:12;;;;;;;1.90;1.70;;;15.60;99.90;;;;;;5023851;28;20556;-57
2021/07/15 09:19:42;;;;;;;2.00;1.80;;;15.50;99.90;;;;;;5025102;28;20495;-56
2021/07/15 09:22:11;;;;;;;1.70;1.50;;;15.50;99.90;;;;;;5028490;28;20526;-57
2021/07/15 09:24:40;;;;;;;1.30;1.20;;;15.60;99.90;;;;;;5030179;28;20468;-57
2021/07/15 09:27:12;;;;;;;2.20;1.70;;;15.60;99.90;;;;;;5024280;28;21056;-57
2021/07/15 09:29:39;;;;;;;2.90;1.63;;;15.60;99.90;;;;;;5026955;28;20516;-58
2021/07/15 09:32:07;;;;;;;1.50;1.40;;;15.60;99.90;;;;;;5027789;28;20518;-57
2021/07/15 09:34:36;;;;;;;2.10;1.70;;;15.50;99.90;;;;;;5029040;28;20472;-57
2021/07/15 09:37:12;;;;;;;2.07;1.83;;;15.50;99.90;;;;;;5022874;28;20768;-57
2021/07/15 09:39:47;;;;;;;3.43;2.10;;;15.50;99.90;;;;;;5018835;28;20519;-57
2021/07/15 09:42:18;;;;;;;2.93;1.90;;;15.50;99.90;;;;;;5017829;28;20511;-57
2021/07/15 09:44:47;;;;;;;2.47;1.90;;;15.60;99.90;;;;;;5017157;28;20839;-57
2021/07/15 09:47:36;;;;;;;2.33;1.60;;;15.80;99.90;;;;;;5018040;28;20544;-57
2021/07/15 09:50:25;;;;;;;1.70;1.60;;;15.80;99.90;;;;;;5018276;28;20636;-57
2021/07/15 09:53:13;;;;;;;1.70;1.60;;;15.70;99.90;;;;;;5029584;28;20464;-57
2021/07/15 09:55:40;;;;;;;1.90;1.70;;;15.90;99.90;;;;;;5022617;28;20444;-57
2021/07/15 09:58:08;;;;;;;1.40;1.30;;;15.90;99.90;;;;;;5020120;28;20484;-57
2021/07/15 10:00:37;;;;;;;1.60;1.50;;;15.80;99.90;;;;;;5026603;28;20460;-57
2021/07/15 10:03:06;;;;;;;1.70;1.60;;;15.80;99.90;;;;;;5021599;28;20461;-57
2021/07/15 10:05:33;;;;;;;1.90;1.80;;;15.90;99.90;;;;;;5027572;28;20518;-57
2021/07/15 10:08:07;;;;;;;1.93;1.80;;;16.00;99.90;;;;;;5017808;28;20539;-57
2021/07/15 10:10:34;;;;;;;2.33;2.20;;;16.10;99.90;;;;;;5022359;28;20514;-57
2021/07/15 10:13:15;;;;;;;1.87;1.77;;;16.10;99.90;;;;;;5018560;28;20464;-57
2021/07/15 10:15:43;;;;;;;2.03;1.83;;;16.10;99.90;;;;;;5032060;28;20452;-57
2021/07/15 10:18:11;;;;;;;1.70;1.60;;;16.10;99.90;;;;;;5023091;28;20527;-57
2021/07/15 10:20:38;;;;;;;2.30;2.00;;;16.20;99.90;;;;;;5018420;28;21213;-57
2021/07/15 10:23:07;;;;;;;2.63;2.00;;;16.30;99.90;;;;;;5026749;28;20457;-57
2021/07/15 10:25:33;;;;;;;2.80;2.50;;;16.40;99.90;;;;;;5016327;28;20519;-57
2021/07/15 10:28:01;;;;;;;2.27;2.03;;;16.60;99.90;;;;;;5025024;28;20535;-57
2021/07/15 10:30:29;;;;;;;2.63;2.43;;;16.70;99.90;;;;;;5024862;28;20464;-57
2021/07/15 10:32:56;;;;;;;1.90;1.80;;;16.80;99.90;;;;;;5024962;28;20467;-57
2021/07/15 10:35:25;;;;;;;7.93;3.23;;;16.90;99.90;;;;;;5017858;28;20938;-57
2021/07/15 10:37:56;;;;;;;3.97;3.00;;;16.90;99.90;;;;;;5022772;28;21103;-57
2021/07/15 10:40:25;;;;;;;2.00;1.90;;;16.90;99.90;;;;;;5024306;28;20562;-57
2021/07/15 10:42:54;;;;;;;4.70;3.13;;;16.80;99.90;;;;;;5030734;28;20967;-57
2021/07/15 10:45:22;;;;;;;2.33;2.13;;;16.70;99.90;;;;;;5023546;28;20449;-57
2021/07/15 10:47:54;;;;;;;2.23;2.03;;;16.80;99.90;;;;;;5020144;28;20488;-57
2021/07/15 10:50:21;;;;;;;2.37;2.17;;;16.70;99.90;;;;;;5016949;28;20565;-60
2021/07/15 10:52:50;;;;;;;3.70;3.40;;;16.70;99.90;;;;;;5021632;28;20537;-57
2021/07/15 10:55:18;;;;;;;2.60;2.40;;;16.80;99.90;;;;;;5023651;28;20503;-57
2021/07/15 10:57:50;;;;;;;3.03;2.73;;;16.70;99.90;;;;;;5014628;28;20548;-57
2021/07/15 11:00:27;;;;;;;4.93;2.60;;;16.70;99.90;;;;;;5030409;28;21065;-57
2021/07/15 11:03:14;;;;;;;2.30;2.10;;;16.70;99.90;;;;;;5021302;28;20471;-57
2021/07/15 11:05:53;;;;;;;5.80;3.10;;;16.60;99.90;;;;;;5035468;28;20464;-57
2021/07/15 11:08:56;;;;;;;2.97;2.00;;;16.70;99.90;;;;;;5023409;28;20484;-57
2021/07/15 11:11:41;;;;;;;1.77;1.67;;;16.70;99.90;;;;;;5036510;28;20500;-57
2021/07/15 11:14:37;;;;;;;1.70;1.43;;;16.70;99.90;;;;;;5035656;28;20978;-57
2021/07/15 11:17:25;;;;;;;1.47;1.37;;;16.50;99.90;;;;;;5025954;28;20465;-57
2021/07/15 11:20:04;;;;;;;1.70;1.60;;;16.60;99.90;;;;;;5038160;28;20461;-57
2021/07/15 11:22:42;;;;;;;2.70;2.03;;;16.60;99.90;;;;;;5046577;28;20468;-56
2021/07/15 11:25:10;;;;;;;3.50;1.97;;;16.60;99.90;;;;;;5034664;28;20548;-58
2021/07/15 11:27:44;;;;;;;1.77;1.67;;;16.70;99.90;;;;;;5028886;28;20518;-57
2021/07/15 11:30:15;;;;;;;3.80;1.90;;;16.70;99.90;;;;;;5027233;28;20456;-57
2021/07/15 11:32:42;;;;;;;2.23;2.10;;;16.60;99.90;;;;;;5030666;28;20468;-57
2021/07/15 11:35:30;;;;;;;2.30;2.10;;;16.60;99.90;;;;;;5028090;28;20547;-57
2021/07/15 11:38:05;;;;;;;3.58;2.17;;;16.70;99.90;;;;;;5024131;28;20434;-57
2021/07/15 11:40:44;;;;;;;2.97;1.97;;;16.80;99.90;;;;;;5026828;28;20613;-57
2021/07/15 11:43:25;;;;;;;2.63;1.67;;;16.80;99.90;;;;;;5031839;28;20522;-56
2021/07/15 11:46:17;;;;;;;2.87;1.73;;;16.90;99.90;;;;;;5026750;28;20543;-57
2021/07/15 11:49:22;;;;;;;1.40;1.30;;;16.70;99.90;;;;;;5020226;28;20562;-57
2021/07/15 11:52:03;;;;;;;3.13;1.50;;;16.50;99.90;;;;;;5018358;28;20845;-57
2021/07/15 11:54:45;;;;;;;2.07;1.70;;;16.50;99.90;;;;;;5029729;28;20494;-56
2021/07/15 11:57:26;;;;;;;1.80;1.70;;;16.50;99.90;;;;;;5028025;28;20492;-56
2021/07/15 12:00:11;;;;;;;2.40;2.23;;;16.60;99.90;;;;;;5023322;28;20503;-57
2021/07/15 12:02:40;;;;;;;1.80;1.70;;;16.70;99.90;;;;;;5024948;28;20543;-57
2021/07/15 12:05:20;;;;;;;1.63;1.53;;;16.90;99.90;;;;;;5028897;28;20518;-57
2021/07/15 12:08:03;;;;;;;5.00;1.40;;;17.00;99.90;;;;;;5027988;28;20495;-57
2021/07/15 12:10:33;;;;;;;1.23;1.00;;;17.30;99.90;;;;;;5028476;28;20468;-57
2021/07/15 12:13:00;;;;;;;1.67;1.57;;;17.50;99.90;;;;;;5034786;28;20460;-56
2021/07/15 12:15:29;;;;;;;1.43;1.33;;;17.80;99.90;;;;;;5028725;28;20958;-57
2021/07/15 12:17:58;;;;;;;1.67;1.20;;;17.70;99.90;;;;;;5025467;28;20901;-57
2021/07/15 12:20:36;;;;;;;1.87;1.30;;;17.70;99.90;;;;;;5026190;28;20510;-56
2021/07/15 12:23:04;;;;;;;1.33;1.23;;;17.80;99.90;;;;;;5025740;28;20465;-57
2021/07/15 12:25:33;;;;;;;3.10;1.27;;;17.90;99.90;;;;;;5027031;28;20464;-57
2021/07/15 12:28:05;;;;;;;2.43;1.33;;;18.00;99.90;;;;;;5023664;28;20492;-56
2021/07/15 12:30:45;;;;;;;2.83;1.20;;;18.00;99.90;;;;;;5027709;28;20555;-57
2021/07/15 12:33:15;;;;;;;1.23;1.13;;;17.90;99.90;;;;;;5024191;28;20544;-57
2021/07/15 12:35:43;;;;;;;1.27;1.17;;;18.00;99.90;;;;;;5022936;28;20481;-56
2021/07/15 12:38:26;;;;;;;1.60;1.50;;;18.00;99.90;;;;;;5024118;28;20476;-56
2021/07/15 12:41:07;;;;;;;1.70;1.60;;;18.00;99.90;;;;;;5020053;28;20820;-57
2021/07/15 12:43:46;;;;;;;3.63;1.40;;;18.10;99.90;;;;;;5022570;28;20460;-57
2021/07/15 12:46:14;;;;;;;3.30;1.50;;;18.20;99.90;;;;;;5025129;28;20537;-57
2021/07/15 12:48:45;;;;;;;1.80;1.70;;;18.20;99.90;;;;;;5026095;28;20488;-56
2021/07/15 12:51:13;;;;;;;3.20;1.57;;;18.10;99.90;;;;;;5022186;28;20591;-58
2021/07/15 12:53:44;;;;;;;1.40;1.30;;;18.20;99.90;;;;;;5022838;28;20535;-56
2021/07/15 12:56:12;;;;;;;1.20;1.10;;;18.10;99.90;;;;;;5022752;28;20461;-56
2021/07/15 12:58:41;;;;;;;3.37;1.57;;;18.20;99.90;;;;;;5016284;28;20909;-56
2021/07/15 13:01:09;;;;;;;1.50;1.40;;;18.20;99.90;;;;;;5023369;28;20464;-56
2021/07/15 13:03:36;;;;;;;1.67;1.57;;;18.20;99.90;;;;;;5022370;28;20468;-57